Time;durP1;ratioP1;P1;durP2;ratioP2;P2;SDS_P1;SDS_P2;PMS_P1;PMS_P2;Temp;Humidity;BMP_temperature;BMP_pressure;BME280_temperature;BME280_humidity;BME280_pressure;Samples;Min_cycle;Max_cycle;Signal;HPM_P1;HPM_P2
2021/12/18 00:02:37;;;;;;;19.20;12.90;;;3.50;99.90;;;;;;10353482;28;20233;-75
2021/12/18 00:07:37;;;;;;;18.40;12.07;;;3.50;99.90;;;;;;10345758;28;20360;-75
2021/12/18 00:12:41;;;;;;;19.53;13.53;;;3.50;99.90;;;;;;10350764;28;20225;-76
2021/12/18 00:17:41;;;;;;;17.87;12.13;;;3.50;99.90;;;;;;10353403;28;20225;-76
2021/12/18 00:22:43;;;;;;;19.43;12.97;;;3.40;99.90;;;;;;10361559;28;20866;-75
2021/12/18 00:27:44;;;;;;;17.00;11.90;;;3.40;99.90;;;;;;10352700;28;20266;-74
2021/12/18 00:32:44;;;;;;;17.93;12.20;;;3.40;99.90;;;;;;10360053;28;20308;-75
2021/12/18 00:37:46;;;;;;;17.90;12.07;;;3.30;99.90;;;;;;10352038;28;20272;-75
2021/12/18 00:43:02;;;;;;;16.30;11.00;;;3.30;99.90;;;;;;10357210;28;20257;-76
2021/12/18 00:48:03;;;;;;;21.03;12.30;;;3.20;99.90;;;;;;10355642;28;20280;-75
2021/12/18 00:53:04;;;;;;;16.87;11.40;;;3.20;99.90;;;;;;10355661;28;20229;-75
2021/12/18 00:58:05;;;;;;;17.10;10.93;;;3.20;99.90;;;;;;10347321;28;20226;-76
2021/12/18 01:03:14;;;;;;;19.20;12.37;;;3.10;99.90;;;;;;10356569;28;20641;-75
2021/12/18 01:08:15;;;;;;;18.13;12.00;;;3.10;99.90;;;;;;10357236;28;20226;-75
2021/12/18 01:13:21;;;;;;;17.77;11.77;;;3.10;99.90;;;;;;10355210;28;20772;-74
2021/12/18 01:23:41;;;;;;;18.20;12.23;;;3.10;99.90;;;;;;10351142;28;20226;-74
2021/12/18 01:28:42;;;;;;;18.00;11.17;;;3.10;99.90;;;;;;10351264;28;20213;-76
2021/12/18 01:33:42;;;;;;;19.27;11.50;;;3.10;99.90;;;;;;10355840;28;20226;-74
2021/12/18 01:38:43;;;;;;;26.27;13.40;;;3.10;99.90;;;;;;10354250;28;20218;-75
2021/12/18 01:44:35;;;;;;;19.90;12.40;;;3.10;99.90;;;;;;10350943;28;20810;-75
2021/12/18 01:54:35;;;;;;;20.17;12.93;;;3.10;99.90;;;;;;10350477;28;20222;-74
2021/12/18 01:59:40;;;;;;;20.97;12.57;;;3.20;99.90;;;;;;10349417;28;20722;-75
2021/12/18 02:04:41;;;;;;;20.03;12.70;;;3.20;99.90;;;;;;10355012;28;20612;-75
2021/12/18 02:20:38;;;;;;;18.53;12.80;;;3.20;99.90;;;;;;10335459;28;20321;-75
2021/12/18 02:25:44;;;;;;;18.67;12.30;;;3.30;99.90;;;;;;10348358;28;20849;-75
2021/12/18 02:30:49;;;;;;;18.63;11.57;;;3.40;99.90;;;;;;10361267;28;20239;-75
2021/12/18 02:35:53;;;;;;;15.93;11.10;;;3.40;99.90;;;;;;10346698;28;20551;-75
2021/12/18 02:41:03;;;;;;;15.80;9.80;;;3.40;99.90;;;;;;10356975;28;20651;-75
2021/12/18 02:46:19;;;;;;;12.67;10.17;;;3.30;99.90;;;;;;10352012;28;20251;-75
2021/12/18 02:51:21;;;;;;;14.87;11.77;;;3.30;99.90;;;;;;10345875;28;20240;-75
2021/12/18 02:56:23;;;;;;;15.93;12.03;;;3.30;99.90;;;;;;10358377;28;20322;-75
2021/12/18 03:01:26;;;;;;;15.93;11.97;;;3.30;99.90;;;;;;10352581;28;20218;-74
2021/12/18 03:06:35;;;;;;;15.87;11.90;;;3.30;99.90;;;;;;10348363;28;20238;-75
2021/12/18 03:27:54;;;;;;;16.10;12.30;;;3.20;99.90;;;;;;10284203;28;20218;-76
2021/12/18 03:32:55;;;;;;;18.77;14.30;;;3.20;99.90;;;;;;10355604;28;20251;-74
2021/12/18 03:37:59;;;;;;;23.87;16.30;;;3.10;99.90;;;;;;10357298;28;20726;-75
2021/12/18 03:42:59;;;;;;;29.70;15.97;;;3.00;99.90;;;;;;10365198;28;20231;-75
2021/12/18 03:48:00;;;;;;;31.70;17.30;;;3.00;99.90;;;;;;10349071;28;20253;-75
2021/12/18 03:53:00;;;;;;;40.33;17.60;;;3.00;99.90;;;;;;10345906;28;20229;-75
2021/12/18 03:58:01;;;;;;;37.57;17.57;;;3.10;99.90;;;;;;10358774;28;20227;-75
2021/12/18 04:03:03;;;;;;;47.57;16.17;;;3.10;99.90;;;;;;10359117;28;20275;-75
2021/12/18 04:08:10;;;;;;;48.77;14.87;;;3.10;99.90;;;;;;10349779;28;20582;-75
2021/12/18 04:13:11;;;;;;;49.67;15.37;;;3.10;99.90;;;;;;10352739;28;20213;-74
2021/12/18 04:18:11;;;;;;;49.00;15.57;;;3.10;99.90;;;;;;10356562;28;20231;-75
2021/12/18 04:23:12;;;;;;;40.13;15.20;;;3.10;99.90;;;;;;10347819;28;20308;-75
2021/12/18 04:28:16;;;;;;;34.80;13.37;;;3.00;99.90;;;;;;10367628;28;20209;-75
2021/12/18 04:33:17;;;;;;;30.57;13.27;;;3.00;99.90;;;;;;10364087;28;20217;-75
2021/12/18 04:38:17;;;;;;;20.53;11.80;;;3.00;99.90;;;;;;10358614;28;20221;-75
2021/12/18 04:43:18;;;;;;;17.77;11.03;;;3.10;99.90;;;;;;10355233;28;20292;-75
2021/12/18 04:48:19;;;;;;;20.30;12.23;;;3.20;99.90;;;;;;10362385;28;20222;-75
2021/12/18 04:53:19;;;;;;;19.23;12.03;;;3.30;99.90;;;;;;10354513;28;20231;-74
2021/12/18 04:58:20;;;;;;;18.20;11.30;;;3.40;99.90;;;;;;10347366;28;20218;-75
2021/12/18 05:03:21;;;;;;;15.93;10.63;;;3.40;99.90;;;;;;10349302;28;20872;-75
2021/12/18 05:08:21;;;;;;;15.43;10.03;;;3.60;99.90;;;;;;10353060;28;20213;-74
2021/12/18 05:13:22;;;;;;;14.27;9.97;;;3.60;99.90;;;;;;10356724;28;20220;-75
2021/12/18 05:18:24;;;;;;;14.27;9.70;;;3.70;99.90;;;;;;10353607;28;20702;-75
2021/12/18 05:23:25;;;;;;;14.20;9.60;;;3.70;99.90;;;;;;10349371;28;20225;-76
2021/12/18 05:28:25;;;;;;;14.67;9.70;;;3.70;99.90;;;;;;10346583;28;20244;-75
2021/12/18 05:33:26;;;;;;;14.37;10.33;;;3.70;99.90;;;;;;10355901;28;20305;-74
2021/12/18 05:38:26;;;;;;;13.27;9.63;;;3.70;99.90;;;;;;10349792;28;20728;-75
2021/12/18 05:43:27;;;;;;;13.77;10.10;;;3.80;99.90;;;;;;10354779;28;20315;-74
2021/12/18 05:48:27;;;;;;;15.17;10.20;;;3.90;99.90;;;;;;10352346;28;20229;-75
2021/12/18 05:53:28;;;;;;;14.37;9.67;;;3.90;99.90;;;;;;10349220;28;20217;-75
2021/12/18 05:58:28;;;;;;;17.83;12.20;;;4.00;99.90;;;;;;10357681;28;20221;-74
2021/12/18 06:03:29;;;;;;;15.90;11.07;;;4.00;99.90;;;;;;10356676;28;20233;-75
2021/12/18 06:08:32;;;;;;;18.67;12.13;;;4.00;99.90;;;;;;10354892;28;20300;-75
2021/12/18 06:13:32;;;;;;;15.33;10.43;;;4.10;99.90;;;;;;10350556;28;20218;-75
2021/12/18 06:18:42;;;;;;;17.43;11.10;;;4.20;99.90;;;;;;10346964;28;20209;-74
2021/12/18 06:23:44;;;;;;;14.93;10.47;;;4.10;99.90;;;;;;10356363;28;20582;-75
2021/12/18 06:28:45;;;;;;;13.97;9.70;;;4.10;99.90;;;;;;10356583;28;20590;-75
2021/12/18 06:33:46;;;;;;;15.10;10.40;;;4.20;99.90;;;;;;10354053;28;20225;-75
2021/12/18 06:38:47;;;;;;;15.87;10.40;;;4.10;99.90;;;;;;10350448;28;20789;-75
2021/12/18 06:43:47;;;;;;;13.37;10.03;;;4.10;99.90;;;;;;10354987;28;20221;-75
2021/12/18 06:48:48;;;;;;;13.83;10.10;;;4.10;99.90;;;;;;10346206;28;20217;-74
2021/12/18 06:53:48;;;;;;;14.53;9.63;;;4.10;99.90;;;;;;10356606;28;20228;-76
2021/12/18 06:58:52;;;;;;;13.00;9.43;;;4.10;99.90;;;;;;10345816;28;20230;-74
2021/12/18 07:03:52;;;;;;;12.90;9.17;;;4.20;99.90;;;;;;10349487;28;20299;-75
2021/12/18 07:08:53;;;;;;;13.20;9.70;;;4.20;99.90;;;;;;10344328;28;20264;-75
2021/12/18 07:13:54;;;;;;;15.53;10.27;;;4.20;99.90;;;;;;10348832;28;20757;-75
2021/12/18 07:18:55;;;;;;;15.70;9.60;;;4.20;99.90;;;;;;10343614;28;20279;-74
2021/12/18 07:23:55;;;;;;;13.30;9.80;;;4.30;99.90;;;;;;10351315;28;20312;-76
2021/12/18 07:28:56;;;;;;;14.70;10.47;;;4.30;99.90;;;;;;10364182;28;20219;-74
2021/12/18 07:33:56;;;;;;;15.80;10.07;;;4.30;99.90;;;;;;10354244;28;20755;-76
2021/12/18 07:38:57;;;;;;;14.17;10.53;;;4.40;99.90;;;;;;10378158;28;20220;-75
2021/12/18 07:43:58;;;;;;;15.63;10.63;;;4.50;99.90;;;;;;10369693;28;20767;-76
2021/12/18 07:49:07;;;;;;;16.27;11.10;;;4.50;99.90;;;;;;10375880;28;20303;-75
2021/12/18 07:54:07;;;;;;;14.37;10.60;;;4.50;99.90;;;;;;10374314;28;20300;-75
2021/12/18 07:59:09;;;;;;;16.90;11.20;;;4.60;99.90;;;;;;10370980;28;20323;-76
2021/12/18 08:04:10;;;;;;;17.63;11.23;;;4.60;99.90;;;;;;10361435;28;20402;-75
2021/12/18 08:09:10;;;;;;;14.97;10.53;;;4.70;99.90;;;;;;10370295;28;20300;-75
2021/12/18 08:14:11;;;;;;;16.00;10.87;;;4.80;99.90;;;;;;10370798;28;20228;-76
2021/12/18 08:19:15;;;;;;;16.93;11.40;;;4.80;99.90;;;;;;10362467;28;20706;-74
2021/12/18 08:24:16;;;;;;;16.63;11.73;;;4.80;99.90;;;;;;10359087;28;20728;-75
2021/12/18 08:29:17;;;;;;;14.73;10.67;;;4.90;99.90;;;;;;10364306;28;20213;-74
2021/12/18 08:34:20;;;;;;;16.73;12.10;;;4.90;99.90;;;;;;10363277;28;20217;-75
2021/12/18 08:39:20;;;;;;;15.20;11.33;;;4.90;99.90;;;;;;10359237;28;20567;-76
2021/12/18 08:44:24;;;;;;;15.57;11.47;;;4.90;99.90;;;;;;10356554;28;20225;-74
2021/12/18 08:49:26;;;;;;;16.60;11.90;;;4.90;99.90;;;;;;10353075;28;20747;-74
2021/12/18 08:54:27;;;;;;;16.37;12.37;;;5.00;99.90;;;;;;10350535;28;20214;-75
2021/12/18 08:59:28;;;;;;;15.83;11.97;;;5.10;99.90;;;;;;10361152;28;20212;-75
2021/12/18 09:04:29;;;;;;;15.43;11.97;;;5.10;99.90;;;;;;10350970;28;20232;-75
2021/12/18 09:09:29;;;;;;;15.73;11.87;;;5.20;99.90;;;;;;10355024;28;20244;-75
2021/12/18 09:14:30;;;;;;;15.60;11.70;;;5.30;99.90;;;;;;10350113;28;20285;-75
2021/12/18 09:19:30;;;;;;;16.37;12.63;;;5.30;99.90;;;;;;10355055;28;20227;-75
2021/12/18 09:24:31;;;;;;;14.37;12.00;;;5.30;99.90;;;;;;10362269;28;20782;-75
2021/12/18 09:29:32;;;;;;;14.47;12.47;;;5.30;99.90;;;;;;10346980;28;20226;-75
2021/12/18 09:34:34;;;;;;;13.67;10.87;;;5.30;99.90;;;;;;10351328;28;20318;-75
2021/12/18 09:39:34;;;;;;;20.00;13.67;;;5.30;99.90;;;;;;10357908;28;20233;-75
2021/12/18 09:44:35;;;;;;;14.97;12.37;;;5.30;99.90;;;;;;10351128;28;20261;-74
2021/12/18 09:49:40;;;;;;;16.33;12.77;;;5.40;99.90;;;;;;10349235;28;20236;-74
2021/12/18 09:54:40;;;;;;;16.13;13.40;;;5.40;99.90;;;;;;10350084;28;20307;-75
2021/12/18 09:59:41;;;;;;;15.70;12.73;;;5.40;99.90;;;;;;10352655;28;20248;-74
2021/12/18 10:04:43;;;;;;;15.20;11.67;;;5.50;99.90;;;;;;10355528;28;20590;-74
2021/12/18 10:09:45;;;;;;;12.93;10.60;;;5.50;99.90;;;;;;10348939;28;20582;-74
2021/12/18 10:15:14;;;;;;;14.43;11.60;;;5.50;99.90;;;;;;10347684;28;20664;-75
2021/12/18 10:20:20;;;;;;;14.67;11.60;;;5.50;99.90;;;;;;10345936;28;20214;-75
2021/12/18 10:25:28;;;;;;;15.67;11.97;;;5.60;99.90;;;;;;10352154;28;20290;-74
2021/12/18 10:30:30;;;;;;;14.00;11.40;;;5.60;99.90;;;;;;10354683;28;20209;-74
2021/12/18 10:35:45;;;;;;;12.47;9.87;;;5.60;99.90;;;;;;10349436;28;20217;-75
2021/12/18 10:46:45;;;;;;;13.50;10.77;;;5.70;99.90;;;;;;10350688;28;20666;-75
2021/12/18 10:51:54;;;;;;;15.00;11.67;;;5.70;99.90;;;;;;10361750;28;20233;-75
2021/12/18 10:56:55;;;;;;;14.00;11.40;;;5.70;99.90;;;;;;10357303;28;20691;-76
2021/12/18 11:02:02;;;;;;;14.60;11.57;;;5.70;99.90;;;;;;10343732;28;20217;-75
2021/12/18 11:07:31;;;;;;;12.80;10.93;;;5.60;99.90;;;;;;10356383;28;20240;-75
2021/12/18 11:17:51;;;;;;;12.20;10.23;;;5.70;99.90;;;;;;10355113;28;20217;-75
2021/12/18 11:22:55;;;;;;;10.67;9.27;;;5.60;99.90;;;;;;10344243;28;20251;-73
2021/12/18 11:27:56;;;;;;;12.40;9.67;;;5.60;99.90;;;;;;10348346;28;20210;-74
2021/12/18 11:32:57;;;;;;;11.60;9.90;;;5.70;99.90;;;;;;10356661;28;20239;-75
2021/12/18 11:38:07;;;;;;;13.87;10.87;;;5.70;99.90;;;;;;10342634;28;20220;-76
2021/12/18 11:43:32;;;;;;;14.07;11.47;;;5.60;99.90;;;;;;10342842;28;20260;-74
2021/12/18 11:48:55;;;;;;;15.17;12.60;;;5.60;99.90;;;;;;10349059;28;20251;-76
2021/12/18 11:53:57;;;;;;;12.57;10.27;;;5.60;99.90;;;;;;10365432;28;20225;-76
2021/12/18 11:58:58;;;;;;;15.10;11.50;;;5.50;99.90;;;;;;10355796;28;20283;-77
2021/12/18 12:03:59;;;;;;;12.07;10.00;;;5.50;99.90;;;;;;10363950;28;20692;-76
2021/12/18 12:09:35;;;;;;;14.33;10.73;;;5.40;99.90;;;;;;10351699;28;20214;-76
2021/12/18 12:14:35;;;;;;;13.47;11.00;;;5.50;99.90;;;;;;10355257;28;20316;-77
2021/12/18 12:19:36;;;;;;;12.07;10.20;;;5.40;99.90;;;;;;10355432;28;20313;-75
2021/12/18 12:24:57;;;;;;;15.50;11.10;;;5.40;99.90;;;;;;10359067;28;20308;-74
2021/12/18 12:30:00;;;;;;;16.30;11.37;;;5.50;99.90;;;;;;10349500;28;20213;-74
2021/12/18 12:35:07;;;;;;;13.67;11.10;;;5.50;99.90;;;;;;10350558;28;20217;-75
2021/12/18 12:40:12;;;;;;;13.27;10.37;;;5.50;99.90;;;;;;10355780;28;20849;-76
2021/12/18 12:45:35;;;;;;;14.33;10.50;;;5.50;99.90;;;;;;10348918;28;20671;-76
2021/12/18 12:50:37;;;;;;;15.90;12.03;;;5.50;99.90;;;;;;10371355;28;20213;-75
2021/12/18 12:55:41;;;;;;;14.37;11.43;;;5.60;99.90;;;;;;10361561;28;20645;-75
2021/12/18 13:00:43;;;;;;;13.17;10.13;;;5.60;99.90;;;;;;10362972;28;20268;-75
2021/12/18 13:05:50;;;;;;;12.67;10.07;;;5.50;99.90;;;;;;10353605;28;20229;-75
2021/12/18 13:10:54;;;;;;;12.90;10.33;;;5.50;99.90;;;;;;10361025;28;20218;-75
2021/12/18 13:16:10;;;;;;;13.57;10.63;;;5.50;99.90;;;;;;10355579;28;20279;-74
2021/12/18 13:21:13;;;;;;;12.93;10.47;;;5.50;99.90;;;;;;10356427;28;20217;-74
2021/12/18 13:26:27;;;;;;;14.37;11.57;;;5.60;99.90;;;;;;10363737;28;20755;-75
2021/12/18 13:31:31;;;;;;;14.80;10.80;;;5.60;99.90;;;;;;10357229;28;20233;-76
2021/12/18 13:36:49;;;;;;;12.30;10.17;;;5.60;99.90;;;;;;10358356;28;20223;-75
2021/12/18 13:42:09;;;;;;;12.30;9.97;;;5.60;99.90;;;;;;10356502;28;20229;-75
2021/12/18 13:53:07;;;;;;;11.87;10.03;;;5.40;99.90;;;;;;10345962;28;20218;-74
2021/12/18 13:58:17;;;;;;;15.63;11.53;;;5.50;99.90;;;;;;10355942;28;20213;-76
2021/12/18 14:03:48;;;;;;;15.20;12.10;;;5.50;99.90;;;;;;10349136;28;20221;-74
2021/12/18 14:08:51;;;;;;;15.33;11.50;;;5.50;99.90;;;;;;10343575;28;20250;-75
2021/12/18 14:14:06;;;;;;;17.03;13.07;;;5.50;99.90;;;;;;10356864;28;20241;-75
2021/12/18 14:19:11;;;;;;;16.33;12.47;;;5.50;99.90;;;;;;10351463;28;20232;-74
2021/12/18 14:24:16;;;;;;;18.83;13.20;;;5.50;99.90;;;;;;10344368;28;20237;-75
2021/12/18 14:29:17;;;;;;;17.60;13.20;;;5.50;99.90;;;;;;10348810;28;20580;-74
2021/12/18 14:34:32;;;;;;;16.43;13.93;;;5.50;99.90;;;;;;10351143;28;20333;-75
2021/12/18 14:39:43;;;;;;;10.43;8.93;;;5.50;99.90;;;;;;10353758;28;20253;-75
2021/12/18 14:45:10;;;;;;;11.27;7.80;;;5.50;99.90;;;;;;10346922;28;20229;-74
2021/12/18 14:50:33;;;;;;;10.37;7.73;;;5.50;99.90;;;;;;10350659;28;20287;-76
2021/12/18 14:55:40;;;;;;;13.23;10.77;;;5.40;99.90;;;;;;10345611;28;20224;-75
2021/12/18 15:00:50;;;;;;;12.00;8.97;;;5.30;99.90;;;;;;10353067;28;20764;-75
2021/12/18 15:06:04;;;;;;;13.80;10.73;;;5.30;99.90;;;;;;10350241;28;20226;-75
2021/12/18 15:11:19;;;;;;;15.27;12.07;;;5.20;99.90;;;;;;10356997;28;20274;-75
2021/12/18 15:16:36;;;;;;;18.70;13.53;;;5.20;99.90;;;;;;10345308;28;20213;-75
2021/12/18 15:21:39;;;;;;;18.07;13.80;;;5.20;99.90;;;;;;10347084;28;20220;-75
2021/12/18 15:26:41;;;;;;;19.53;15.10;;;5.20;99.90;;;;;;10349268;28;20237;-75
2021/12/18 15:31:43;;;;;;;17.07;12.87;;;5.20;99.90;;;;;;10352780;28;20217;-76
2021/12/18 15:36:46;;;;;;;19.13;14.83;;;5.10;99.90;;;;;;10349892;28;20729;-74
2021/12/18 15:41:50;;;;;;;18.33;13.20;;;5.10;99.90;;;;;;10342381;28;20226;-76
2021/12/18 15:46:50;;;;;;;17.63;13.20;;;5.20;99.90;;;;;;10351789;28;20292;-76
2021/12/18 15:51:51;;;;;;;18.13;13.50;;;5.10;99.90;;;;;;10354711;28;20217;-75
2021/12/18 15:56:52;;;;;;;16.27;12.33;;;5.10;99.90;;;;;;10359955;28;20225;-76
2021/12/18 16:01:52;;;;;;;18.47;13.87;;;5.00;99.90;;;;;;10368218;28;20221;-75
2021/12/18 16:06:53;;;;;;;20.30;14.23;;;5.10;99.90;;;;;;10357946;28;20232;-75
2021/12/18 16:11:57;;;;;;;15.40;12.50;;;5.00;99.90;;;;;;10354242;28;20326;-75
2021/12/18 16:16:58;;;;;;;19.10;13.73;;;5.00;99.90;;;;;;10349800;28;20291;-76
2021/12/18 16:21:59;;;;;;;20.47;14.60;;;5.00;99.90;;;;;;10361986;28;20758;-75
2021/12/18 16:26:59;;;;;;;18.27;13.57;;;4.90;99.90;;;;;;10348950;28;20754;-75
2021/12/18 16:32:00;;;;;;;17.33;13.20;;;4.90;99.90;;;;;;10350444;28;20600;-75
2021/12/18 16:37:06;;;;;;;16.63;12.97;;;4.90;99.90;;;;;;10364440;28;20320;-76
2021/12/18 16:42:06;;;;;;;17.90;13.20;;;4.90;99.90;;;;;;10355717;28;20561;-74
2021/12/18 16:47:08;;;;;;;14.70;10.93;;;4.90;99.90;;;;;;10363489;28;20257;-74
2021/12/18 16:52:09;;;;;;;12.67;9.80;;;4.90;99.90;;;;;;10362712;28;20934;-76
2021/12/18 16:57:10;;;;;;;16.33;11.57;;;4.90;99.90;;;;;;10351405;28;20222;-75
2021/12/18 17:02:11;;;;;;;19.23;13.43;;;4.90;99.90;;;;;;10358106;28;20673;-75
2021/12/18 17:07:12;;;;;;;16.03;12.43;;;4.90;99.90;;;;;;10352920;28;20226;-75
2021/12/18 17:12:12;;;;;;;18.70;12.47;;;5.00;99.90;;;;;;10372741;28;20303;-75
2021/12/18 17:17:16;;;;;;;18.00;12.43;;;4.90;99.90;;;;;;10361184;28;20237;-76
2021/12/18 17:22:18;;;;;;;16.10;13.27;;;4.90;99.90;;;;;;10364295;28;20217;-75
2021/12/18 17:27:18;;;;;;;15.43;11.23;;;4.90;99.90;;;;;;10367565;28;20272;-75
2021/12/18 17:32:19;;;;;;;11.77;9.27;;;4.90;99.90;;;;;;10354148;28;20237;-75
2021/12/18 17:37:20;;;;;;;13.50;9.60;;;4.90;99.90;;;;;;10357333;28;20309;-75
2021/12/18 17:42:20;;;;;;;12.13;10.33;;;4.90;99.90;;;;;;10361189;28;20228;-75
2021/12/18 17:47:21;;;;;;;14.60;10.13;;;4.90;99.90;;;;;;10347991;28;20235;-74
2021/12/18 17:52:22;;;;;;;14.13;9.80;;;4.90;99.90;;;;;;10358926;28;20222;-74
2021/12/18 17:57:23;;;;;;;10.40;8.60;;;4.90;99.90;;;;;;10349845;28;20279;-74
2021/12/18 18:02:24;;;;;;;12.80;8.87;;;4.90;99.90;;;;;;10350586;28;20245;-77
2021/12/18 18:07:25;;;;;;;13.50;9.40;;;4.90;99.90;;;;;;10357538;28;20630;-74
2021/12/18 18:12:26;;;;;;;16.67;10.03;;;4.90;99.90;;;;;;10348776;28;20221;-75
2021/12/18 18:17:27;;;;;;;13.77;10.33;;;4.90;99.90;;;;;;10361508;28;20245;-75
2021/12/18 18:22:28;;;;;;;16.07;10.53;;;4.90;99.90;;;;;;10375777;28;20260;-74
2021/12/18 18:27:29;;;;;;;17.37;10.63;;;4.90;99.90;;;;;;10351890;28;20690;-76
2021/12/18 18:32:30;;;;;;;13.53;10.07;;;5.00;99.90;;;;;;10356926;28;20824;-74
2021/12/18 18:37:31;;;;;;;12.60;8.53;;;5.10;99.90;;;;;;10359419;28;20275;-75
2021/12/18 18:42:31;;;;;;;14.93;10.83;;;5.10;99.90;;;;;;10352358;28;20240;-75
2021/12/18 18:47:37;;;;;;;16.73;10.90;;;5.10;99.90;;;;;;10358786;28;20323;-75
2021/12/18 18:52:38;;;;;;;13.87;10.60;;;5.20;99.90;;;;;;10361253;28;20226;-76
2021/12/18 18:57:41;;;;;;;13.17;10.27;;;5.30;99.90;;;;;;10342742;28;20221;-74
2021/12/18 19:02:42;;;;;;;16.87;11.33;;;5.40;99.90;;;;;;10351083;28;20633;-75
2021/12/18 19:07:43;;;;;;;13.07;9.97;;;5.50;99.90;;;;;;10351148;28;20238;-75
2021/12/18 19:12:45;;;;;;;14.67;10.93;;;5.50;99.90;;;;;;10352886;28;20224;-75
2021/12/18 19:17:50;;;;;;;13.97;10.63;;;5.60;99.90;;;;;;10348229;28;20566;-75
2021/12/18 19:22:50;;;;;;;17.33;11.70;;;5.50;99.90;;;;;;10368432;28;20229;-74
2021/12/18 19:27:51;;;;;;;14.00;10.50;;;5.50;99.90;;;;;;10340686;28;20225;-75
2021/12/18 19:32:52;;;;;;;19.87;12.03;;;5.40;99.90;;;;;;10357746;28;20864;-75
2021/12/18 19:37:55;;;;;;;15.67;11.70;;;5.40;99.90;;;;;;10344736;28;20313;-75
2021/12/18 19:42:56;;;;;;;15.37;11.20;;;5.40;99.90;;;;;;10348386;28;20252;-75
2021/12/18 19:47:57;;;;;;;15.07;11.03;;;5.40;99.90;;;;;;10342235;28;20229;-75
2021/12/18 19:52:58;;;;;;;16.03;12.33;;;5.40;99.90;;;;;;10354106;28;20593;-75
2021/12/18 19:57:59;;;;;;;16.17;11.17;;;5.50;99.90;;;;;;10355648;28;20320;-76
2021/12/18 20:03:08;;;;;;;17.17;12.30;;;5.50;99.90;;;;;;10344314;28;20313;-74
2021/12/18 20:08:09;;;;;;;20.07;14.20;;;5.60;99.90;;;;;;10357435;28;20244;-75
2021/12/18 20:13:09;;;;;;;17.53;12.30;;;5.60;99.90;;;;;;10342310;28;20913;-75
2021/12/18 20:18:10;;;;;;;16.43;12.80;;;5.60;99.90;;;;;;10349905;28;20234;-75
2021/12/18 20:23:11;;;;;;;20.83;14.63;;;5.60;99.90;;;;;;10341981;28;20224;-74
2021/12/18 20:28:12;;;;;;;19.50;13.33;;;5.60;99.90;;;;;;10358040;28;20300;-74
2021/12/18 20:33:15;;;;;;;21.50;15.17;;;5.60;99.90;;;;;;10355751;28;20224;-75
2021/12/18 20:38:16;;;;;;;22.63;15.07;;;5.60;99.90;;;;;;10370343;28;20229;-75
2021/12/18 20:43:17;;;;;;;20.33;14.77;;;5.50;99.90;;;;;;10357417;28;20368;-74
2021/12/18 20:48:17;;;;;;;21.73;15.03;;;5.50;99.90;;;;;;10356382;28;20633;-75
2021/12/18 20:53:21;;;;;;;36.10;19.67;;;5.50;99.90;;;;;;10350084;28;20217;-75
2021/12/18 20:58:22;;;;;;;35.83;20.50;;;5.40;99.90;;;;;;10362719;28;20217;-75
2021/12/18 21:03:23;;;;;;;36.97;21.93;;;5.40;99.90;;;;;;10358290;28;20659;-75
2021/12/18 21:08:26;;;;;;;34.17;19.90;;;5.40;99.90;;;;;;10357473;28;20631;-75
2021/12/18 21:13:30;;;;;;;35.93;22.17;;;5.40;99.90;;;;;;10361891;28;20217;-75
2021/12/18 21:19:24;;;;;;;36.27;20.80;;;5.40;99.90;;;;;;10356018;28;20226;-75
2021/12/18 21:24:24;;;;;;;34.77;21.20;;;5.50;99.90;;;;;;10357525;28;20217;-75
2021/12/18 21:29:25;;;;;;;38.93;22.03;;;5.40;99.90;;;;;;10356343;28;20689;-75
2021/12/18 21:39:47;;;;;;;31.67;20.90;;;5.40;99.90;;;;;;10352980;28;20373;-75
2021/12/18 21:44:50;;;;;;;31.93;19.77;;;5.40;99.90;;;;;;10357651;28;20229;-74
2021/12/18 21:49:51;;;;;;;31.03;19.33;;;5.30;99.90;;;;;;10359424;28;20232;-75
2021/12/18 21:54:52;;;;;;;26.30;17.47;;;5.30;99.90;;;;;;10351101;28;20224;-75
2021/12/18 21:59:53;;;;;;;27.40;17.03;;;5.30;99.90;;;;;;10349551;28;20230;-75
2021/12/18 22:04:53;;;;;;;24.73;17.03;;;5.30;99.90;;;;;;10351190;28;20260;-75
2021/12/18 22:09:54;;;;;;;25.10;17.13;;;5.30;99.90;;;;;;10355610;28;20232;-76
2021/12/18 22:14:55;;;;;;;25.97;16.67;;;5.30;99.90;;;;;;10352656;28;20696;-75
2021/12/18 22:19:55;;;;;;;24.67;16.43;;;5.30;99.90;;;;;;10354662;28;20256;-75
2021/12/18 22:25:02;;;;;;;27.30;16.63;;;5.30;99.90;;;;;;10352149;28;20361;-76
2021/12/18 22:30:05;;;;;;;27.07;17.07;;;5.30;99.90;;;;;;10368141;28;20580;-76
2021/12/18 22:35:07;;;;;;;25.33;16.57;;;5.40;99.90;;;;;;10346555;28;20222;-75
2021/12/18 22:40:09;;;;;;;27.07;17.17;;;5.40;99.90;;;;;;10345647;28;20202;-75
2021/12/18 22:45:10;;;;;;;27.77;17.47;;;5.40;99.90;;;;;;10354948;28;20466;-75
2021/12/18 22:50:16;;;;;;;24.73;17.03;;;5.40;99.90;;;;;;10354009;28;20192;-75
2021/12/18 22:55:17;;;;;;;27.03;17.50;;;5.40;99.90;;;;;;10345867;28;20185;-75
2021/12/18 23:00:26;;;;;;;25.93;16.90;;;5.40;99.90;;;;;;10345278;28;20658;-75
2021/12/18 23:05:28;;;;;;;30.43;20.20;;;5.40;99.90;;;;;;10361924;28;20279;-75
2021/12/18 23:10:29;;;;;;;26.00;17.53;;;5.30;99.90;;;;;;10359475;28;20228;-76
2021/12/18 23:20:47;;;;;;;27.40;18.17;;;5.30;99.90;;;;;;10344596;28;20801;-75
2021/12/18 23:25:51;;;;;;;26.87;17.90;;;5.30;99.90;;;;;;10352934;28;20228;-75
2021/12/18 23:30:56;;;;;;;26.90;16.97;;;5.30;99.90;;;;;;10350106;28;20320;-75
2021/12/18 23:36:01;;;;;;;24.83;16.53;;;5.30;99.90;;;;;;10350891;28;20588;-75
2021/12/18 23:41:03;;;;;;;30.67;18.50;;;5.30;99.90;;;;;;10345227;28;20244;-76
2021/12/18 23:51:26;;;;;;;29.53;17.87;;;5.30;99.90;;;;;;10344711;28;20221;-75
2021/12/18 23:56:27;;;;;;;25.93;16.30;;;5.30;99.90;;;;;;10351947;28;20224;-75
